EIER weather

Erinagh Airport
Nenagh, County Tipperary, Ireland

Public forecast

Using degrees Celsius for public forecast. Weather courtesy of forecast.io.

METAR (pilot weather report)

Closest report is Shannon Airport, 24.3 nm (45.0 km) WSW. Retrieved 2019/06/25 12:30 UTC (23 minutes ago):

EINN 251230Z 36008KT 9999 SCT014 BKN019 19/14 Q1022 NOSIG

TAF (pilot weather forecast)

Closest forecast is Shannon Airport, 24.3 nm (45.0 km) WSW. Retrieved 2019/06/25 12:09 UTC (44 minutes ago):

TAF EINN 251100Z 2512/2612 02008KT 9999 SCT018 BKN030 TEMPO 2512/2522 -SHRA SCT012 SCT018CB TEMPO 2512/2515 4000 SHRA TEMPO 2514/2518 06008KT PROB30 TEMPO 2515/2519 5000 SHRA BECMG 2521/2524 05007KT PROB30 TEMPO 2601/2604 4000 BR BECMG 2609/2611 05012KT